createdAt,value
2019-06-15T00:01:04.306Z,9.67
2019-06-15T00:03:33.023Z,5.63
2019-06-15T00:06:01.650Z,6.07
2019-06-15T00:08:30.316Z,5.97
2019-06-15T00:10:58.993Z,8.63
2019-06-15T00:13:27.661Z,9.07
2019-06-15T00:15:56.438Z,7.53
2019-06-15T00:18:25.237Z,5.80
2019-06-15T00:20:53.903Z,6.43
2019-06-15T00:23:22.626Z,7.03
2019-06-15T00:25:51.356Z,6.77
2019-06-15T00:28:20.077Z,5.97
2019-06-15T00:30:48.787Z,5.95
2019-06-15T00:33:17.489Z,5.03
2019-06-15T00:35:46.146Z,5.60
2019-06-15T00:38:14.812Z,7.62
2019-06-15T00:40:43.566Z,6.67
2019-06-15T00:43:12.213Z,5.03
2019-06-15T00:45:40.866Z,6.53
2019-06-15T00:48:09.539Z,4.37
2019-06-15T00:50:38.229Z,7.17
2019-06-15T00:53:06.889Z,8.27
2019-06-15T00:55:35.482Z,5.90
2019-06-15T00:58:04.261Z,5.67
2019-06-15T01:00:32.957Z,6.67
2019-06-15T01:03:01.563Z,7.20
2019-06-15T01:05:30.218Z,5.17
2019-06-15T01:07:58.899Z,7.53
2019-06-15T01:10:27.589Z,5.27
2019-06-15T01:12:56.195Z,6.60
2019-06-15T01:15:25.009Z,5.87
2019-06-15T01:17:53.755Z,8.27
2019-06-15T01:20:22.546Z,6.00
2019-06-15T01:22:51.269Z,6.60
2019-06-15T01:25:21.191Z,5.70
2019-06-15T01:27:49.975Z,7.43
2019-06-15T01:30:18.871Z,8.03
2019-06-15T01:32:47.588Z,7.05
2019-06-15T01:35:16.245Z,5.30
2019-06-15T01:37:44.928Z,6.80
2019-06-15T01:40:13.762Z,7.58
2019-06-15T01:42:42.519Z,6.00
2019-06-15T01:45:11.166Z,6.97
2019-06-15T01:47:39.823Z,6.43
2019-06-15T01:50:08.683Z,6.13
2019-06-15T01:52:37.446Z,6.57
2019-06-15T01:55:20.036Z,7.23
2019-06-15T01:57:36.398Z,7.47
2019-06-15T02:00:06.093Z,6.07
2019-06-15T02:02:34.764Z,6.53
2019-06-15T02:05:03.483Z,8.37
2019-06-15T02:07:32.237Z,8.27
2019-06-15T02:10:01.049Z,10.23
2019-06-15T02:12:29.659Z,8.23
2019-06-15T02:14:58.246Z,7.07
2019-06-15T02:17:26.969Z,7.13
2019-06-15T02:19:55.672Z,8.17
2019-06-15T02:22:24.764Z,7.43
2019-06-15T02:24:53.350Z,7.43
2019-06-15T02:27:22.162Z,7.33
2019-06-15T02:29:50.921Z,9.53
2019-06-15T02:32:19.483Z,7.03
2019-06-15T02:34:48.040Z,9.80
2019-06-15T02:37:16.753Z,7.27
2019-06-15T02:39:45.414Z,7.77
2019-06-15T02:42:14.122Z,9.73
2019-06-15T02:44:42.690Z,7.40
2019-06-15T02:47:11.531Z,9.50
2019-06-15T02:49:40.212Z,9.23
2019-06-15T02:52:09.013Z,7.17
2019-06-15T02:54:37.822Z,7.00
2019-06-15T02:57:06.486Z,11.50
2019-06-15T02:59:35.146Z,12.07
2019-06-15T03:02:03.753Z,10.73
2019-06-15T03:04:32.484Z,11.80
2019-06-15T03:07:01.102Z,8.47
2019-06-15T03:09:29.872Z,9.50
2019-06-15T03:11:58.565Z,7.60
2019-06-15T03:14:27.657Z,7.93
2019-06-15T03:16:56.230Z,8.30
2019-06-15T03:19:24.932Z,8.10
2019-06-15T03:21:53.611Z,8.33
2019-06-15T03:24:23.334Z,10.07
2019-06-15T03:26:51.904Z,9.87
2019-06-15T03:29:20.586Z,9.47
2019-06-15T03:31:49.338Z,8.57
2019-06-15T03:34:18.034Z,9.10
2019-06-15T03:36:46.651Z,8.43
2019-06-15T03:39:15.333Z,7.70
2019-06-15T03:41:44.097Z,9.37
2019-06-15T03:44:12.796Z,9.87
2019-06-15T03:46:41.511Z,8.10
2019-06-15T03:49:10.085Z,6.43
2019-06-15T03:51:38.667Z,8.37
2019-06-15T03:54:07.330Z,7.00
2019-06-15T03:56:36.015Z,6.93
2019-06-15T03:59:04.739Z,7.73
2019-06-15T04:01:36.634Z,5.70
2019-06-15T04:04:05.225Z,6.50
2019-06-15T04:06:33.834Z,8.90
2019-06-15T04:09:03.680Z,8.00
2019-06-15T04:11:32.398Z,8.20
2019-06-15T04:14:01.151Z,9.40
2019-06-15T04:16:29.910Z,6.70
2019-06-15T04:18:58.556Z,8.67
2019-06-15T04:21:27.206Z,9.10
2019-06-15T04:23:55.869Z,7.83
2019-06-15T04:26:35.747Z,8.87
2019-06-15T04:28:54.927Z,5.83
2019-06-15T04:31:23.681Z,7.73
2019-06-15T04:33:52.355Z,8.20
2019-06-15T04:36:21.022Z,9.90
2019-06-15T04:38:49.666Z,9.17
2019-06-15T04:41:18.337Z,5.60
2019-06-15T04:43:47.018Z,7.90
2019-06-15T04:46:15.756Z,7.13
2019-06-15T04:48:44.501Z,8.07
2019-06-15T04:51:13.092Z,10.67
2019-06-15T04:53:41.839Z,6.73
2019-06-15T04:56:10.572Z,6.97
2019-06-15T04:58:39.284Z,8.13
2019-06-15T05:01:07.985Z,7.17
2019-06-15T05:03:36.629Z,6.80
2019-06-15T05:06:05.311Z,9.87
2019-06-15T05:08:33.952Z,6.20
2019-06-15T05:11:03.672Z,6.53
2019-06-15T05:13:32.510Z,7.97
2019-06-15T05:16:01.197Z,6.20
2019-06-15T05:18:29.899Z,4.87
2019-06-15T05:20:58.621Z,6.27
2019-06-15T05:23:27.329Z,4.90
2019-06-15T05:25:56.035Z,6.63
2019-06-15T05:28:24.625Z,7.07
2019-06-15T05:30:53.283Z,5.43
2019-06-15T05:33:21.994Z,7.43
2019-06-15T05:35:50.685Z,5.27
2019-06-15T05:38:19.438Z,5.53
2019-06-15T05:40:48.137Z,5.07
2019-06-15T05:43:16.795Z,7.60
2019-06-15T05:45:45.435Z,7.07
2019-06-15T05:48:14.138Z,4.80
2019-06-15T05:50:42.791Z,6.37
2019-06-15T05:53:11.561Z,9.40
2019-06-15T05:55:40.135Z,6.20
2019-06-15T05:58:08.822Z,7.23
2019-06-15T06:00:37.554Z,8.33
2019-06-15T06:03:06.281Z,8.60
2019-06-15T06:05:34.859Z,7.83
2019-06-15T06:08:03.601Z,9.50
2019-06-15T06:10:33.951Z,7.03
2019-06-15T06:13:02.729Z,5.37
2019-06-15T06:15:31.422Z,8.53
2019-06-15T06:18:00.135Z,5.03
2019-06-15T06:20:28.869Z,4.10
2019-06-15T06:22:57.675Z,4.13
2019-06-15T06:25:26.400Z,3.10
2019-06-15T06:27:55.166Z,5.43
2019-06-15T06:30:23.784Z,2.97
2019-06-15T06:32:52.375Z,5.27
2019-06-15T06:35:21.223Z,4.33
2019-06-15T06:37:50.179Z,4.23
2019-06-15T06:40:19.054Z,4.33
2019-06-15T06:42:47.801Z,5.03
2019-06-15T06:45:16.548Z,3.90
2019-06-15T06:47:45.145Z,4.93
2019-06-15T06:50:14.376Z,4.10
2019-06-15T06:52:43.125Z,3.80
2019-06-15T06:55:11.833Z,2.27
2019-06-15T06:57:51.789Z,5.00
2019-06-15T07:00:10.884Z,2.60
2019-06-15T07:02:39.617Z,3.07
2019-06-15T07:05:08.845Z,6.10
2019-06-15T07:07:37.643Z,3.27
2019-06-15T07:10:07.453Z,2.47
2019-06-15T07:12:36.178Z,2.70
2019-06-15T07:15:05.516Z,2.33
2019-06-15T07:17:34.164Z,3.83
2019-06-15T07:20:02.994Z,2.10
2019-06-15T07:22:31.678Z,2.03
2019-06-15T07:25:00.511Z,1.60
2019-06-15T07:27:29.418Z,2.17
2019-06-15T07:29:58.247Z,1.50
2019-06-15T07:32:26.974Z,2.93
2019-06-15T07:35:01.483Z,4.53
2019-06-15T07:37:30.717Z,3.00
2019-06-15T07:40:00.285Z,4.40
2019-06-15T07:42:30.197Z,1.77
2019-06-15T07:44:59.821Z,1.70
2019-06-15T07:47:29.282Z,2.40
2019-06-15T07:49:58.769Z,2.63
2019-06-15T07:52:30.077Z,2.53
2019-06-15T07:54:59.808Z,1.95
2019-06-15T07:57:29.352Z,2.03
2019-06-15T08:00:02.054Z,1.60
2019-06-15T08:02:31.400Z,1.77
2019-06-15T08:05:00.981Z,1.67
2019-06-15T08:07:30.534Z,2.40
2019-06-15T08:10:01.476Z,1.60
2019-06-15T08:12:31.315Z,1.60
2019-06-15T08:15:00.891Z,2.17
2019-06-15T08:17:30.462Z,2.80
2019-06-15T08:19:59.993Z,1.73
2019-06-15T08:22:30.244Z,1.60
2019-06-15T08:24:59.510Z,1.90
2019-06-15T08:27:28.821Z,3.73
2019-06-15T08:29:58.231Z,1.50
2019-06-15T08:32:27.698Z,3.60
2019-06-15T08:34:57.088Z,1.70
2019-06-15T08:37:26.653Z,1.97
2019-06-15T08:39:56.168Z,1.90
2019-06-15T08:42:25.449Z,2.83
2019-06-15T08:44:54.907Z,4.23
2019-06-15T08:47:24.454Z,1.50
2019-06-15T08:49:53.821Z,1.30
2019-06-15T08:52:23.153Z,1.63
2019-06-15T08:54:52.533Z,1.30
2019-06-15T08:57:21.816Z,1.75
2019-06-15T08:59:51.129Z,3.27
2019-06-15T09:02:20.348Z,3.17
2019-06-15T09:04:49.863Z,2.87
2019-06-15T09:07:19.241Z,1.60
2019-06-15T09:09:49.548Z,2.43
2019-06-15T09:12:19.006Z,1.47
2019-06-15T09:14:48.424Z,1.77
2019-06-15T09:17:17.987Z,2.10
2019-06-15T09:19:47.601Z,1.67
2019-06-15T09:22:18.204Z,2.10
2019-06-15T09:24:47.717Z,1.60
2019-06-15T09:27:17.161Z,1.70
2019-06-15T09:29:48.335Z,1.63
2019-06-15T09:32:17.278Z,1.83
2019-06-15T09:34:47.215Z,3.20
2019-06-15T09:37:16.156Z,1.83
2019-06-15T09:39:44.903Z,1.93
2019-06-15T09:42:13.856Z,1.80
2019-06-15T09:44:42.514Z,3.43
2019-06-15T09:47:11.347Z,2.00
2019-06-15T09:49:43.107Z,1.83
2019-06-15T09:52:12.190Z,2.20
2019-06-15T09:54:41.375Z,2.60
2019-06-15T09:57:10.668Z,2.67
2019-06-15T09:59:43.195Z,2.35
2019-06-15T10:02:17.769Z,2.60
2019-06-15T10:04:53.722Z,2.57
2019-06-15T10:07:23.285Z,2.23
2019-06-15T10:09:52.795Z,1.80
2019-06-15T10:12:22.310Z,2.10
2019-06-15T10:14:51.783Z,1.60
2019-06-15T10:17:21.183Z,2.90
2019-06-15T10:19:50.784Z,1.93
2019-06-15T10:22:21.571Z,3.20
2019-06-15T10:24:52.200Z,3.70
2019-06-15T10:27:22.032Z,2.80
2019-06-15T10:29:54.554Z,2.87
2019-06-15T10:32:24.178Z,2.97
2019-06-15T10:34:53.911Z,2.63
2019-06-15T10:37:23.409Z,2.90
2019-06-15T10:39:52.924Z,2.83
2019-06-15T10:42:22.918Z,3.50
2019-06-15T10:44:52.485Z,3.60
2019-06-15T10:47:21.826Z,4.70
2019-06-15T10:49:51.491Z,3.90
2019-06-15T10:52:21.086Z,4.30
2019-06-15T10:54:50.693Z,3.97
2019-06-15T10:57:20.203Z,4.93
2019-06-15T10:59:57.489Z,3.90
2019-06-15T11:02:21.030Z,4.78
2019-06-15T11:04:50.687Z,4.10
2019-06-15T11:07:20.234Z,4.57
2019-06-15T11:09:49.774Z,3.90
2019-06-15T11:12:19.267Z,3.03
2019-06-15T11:14:49.218Z,3.07
2019-06-15T11:17:18.857Z,5.23
2019-06-15T11:19:48.476Z,4.90
2019-06-15T11:22:18.009Z,2.97
2019-06-15T11:24:47.621Z,5.00
2019-06-15T11:27:20.537Z,3.30
2019-06-15T11:29:50.170Z,2.97
2019-06-15T11:32:19.640Z,5.93
2019-06-15T11:34:49.308Z,3.97
2019-06-15T11:37:19.087Z,5.10
2019-06-15T11:39:48.688Z,3.97
2019-06-15T11:42:18.410Z,4.50
2019-06-15T11:44:47.884Z,4.20
2019-06-15T11:47:17.502Z,4.43
2019-06-15T11:49:47.046Z,5.30
2019-06-15T11:52:16.768Z,5.13
2019-06-15T11:54:46.693Z,6.63
2019-06-15T11:57:16.207Z,4.70
2019-06-15T11:59:45.719Z,5.23
2019-06-15T12:02:15.128Z,5.40
2019-06-15T12:04:57.651Z,4.97
2019-06-15T12:07:15.788Z,6.70
2019-06-15T12:09:45.202Z,8.40
2019-06-15T12:12:14.740Z,5.87
2019-06-15T12:14:44.296Z,4.40
2019-06-15T12:17:13.918Z,5.77
2019-06-15T12:19:43.682Z,6.33
2019-06-15T12:22:13.273Z,7.20
2019-06-15T12:24:42.788Z,4.57
2019-06-15T12:27:12.206Z,6.30
2019-06-15T12:29:41.537Z,4.67
2019-06-15T12:32:11.304Z,3.87
2019-06-15T12:34:41.149Z,5.30
2019-06-15T12:37:10.780Z,3.97
2019-06-15T12:39:42.105Z,3.37
2019-06-15T12:42:11.619Z,3.53
2019-06-15T12:44:41.284Z,3.53
2019-06-15T12:47:11.408Z,5.60
2019-06-15T12:49:41.044Z,4.40
2019-06-15T12:52:11.664Z,3.67
2019-06-15T12:54:41.337Z,5.90
2019-06-15T12:57:11.050Z,4.83
2019-06-15T12:59:40.351Z,3.60
2019-06-15T13:02:10.025Z,3.40
2019-06-15T13:04:41.249Z,3.43
2019-06-15T13:07:10.659Z,9.83
2019-06-15T13:09:40.156Z,3.73
2019-06-15T13:12:09.538Z,6.73
2019-06-15T13:14:38.950Z,5.30
2019-06-15T13:17:08.360Z,3.73
2019-06-15T13:19:37.928Z,4.87
2019-06-15T13:22:06.876Z,3.83
2019-06-15T13:24:37.097Z,3.73
2019-06-15T13:27:05.950Z,4.63
2019-06-15T13:29:35.411Z,3.10
2019-06-15T13:32:06.040Z,6.27
2019-06-15T13:34:35.576Z,4.90
2019-06-15T13:37:05.310Z,3.10
2019-06-15T13:39:34.578Z,3.60
2019-06-15T13:42:03.926Z,5.33
2019-06-15T13:44:33.107Z,3.87
2019-06-15T13:47:02.256Z,5.00
2019-06-15T13:49:31.553Z,3.17
2019-06-15T13:52:00.707Z,3.80
2019-06-15T13:54:30.033Z,4.47
2019-06-15T13:56:59.280Z,4.57
2019-06-15T13:59:28.677Z,4.23
2019-06-15T14:01:57.921Z,5.20
2019-06-15T14:04:28.204Z,3.50
2019-06-15T14:06:59.312Z,3.83
2019-06-15T14:09:28.845Z,2.60
2019-06-15T14:11:58.287Z,3.57
2019-06-15T14:14:27.705Z,4.23
2019-06-15T14:16:57.216Z,2.67
2019-06-15T14:19:26.935Z,4.60
2019-06-15T14:21:56.570Z,5.03
2019-06-15T14:24:26.069Z,8.67
2019-06-15T14:26:55.707Z,4.37
2019-06-15T14:29:25.293Z,3.93
2019-06-15T14:31:54.826Z,5.17
2019-06-15T14:34:24.386Z,6.23
2019-06-15T14:36:54.010Z,6.83
2019-06-15T14:39:23.676Z,2.53
2019-06-15T14:41:53.098Z,2.90
2019-06-15T14:44:22.723Z,3.27
2019-06-15T14:46:52.241Z,2.93
2019-06-15T14:49:21.938Z,3.50
2019-06-15T14:51:51.537Z,8.63
2019-06-15T14:54:20.921Z,5.10
2019-06-15T14:56:51.539Z,2.47
2019-06-15T14:59:21.142Z,3.63
2019-06-15T15:02:06.275Z,2.93
2019-06-15T15:04:22.392Z,3.57
2019-06-15T15:06:53.279Z,3.05
2019-06-15T15:09:22.828Z,2.83
2019-06-15T15:11:52.382Z,2.03
2019-06-15T15:14:21.868Z,3.10
2019-06-15T15:16:51.467Z,3.00
2019-06-15T15:19:21.236Z,2.90
2019-06-15T15:21:53.580Z,4.63
2019-06-15T15:24:23.199Z,2.97
2019-06-15T15:26:52.597Z,3.10
2019-06-15T15:29:22.374Z,3.60
2019-06-15T15:31:57.190Z,2.77
2019-06-15T15:34:26.127Z,2.00
2019-06-15T15:36:56.749Z,3.10
2019-06-15T15:39:27.363Z,2.43
2019-06-15T15:41:56.982Z,2.47
2019-06-15T15:44:27.060Z,2.60
2019-06-15T15:46:57.110Z,2.10
2019-06-15T15:49:26.944Z,2.33
2019-06-15T15:51:56.733Z,2.50
2019-06-15T15:54:26.817Z,8.60
2019-06-15T15:56:56.380Z,3.57
2019-06-15T15:59:26.171Z,3.10
2019-06-15T16:01:56.676Z,3.57
2019-06-15T16:04:26.512Z,1.97
2019-06-15T16:06:56.260Z,4.10
2019-06-15T16:09:27.119Z,5.97
2019-06-15T16:11:57.229Z,2.70
2019-06-15T16:14:27.937Z,3.63
2019-06-15T16:16:57.636Z,2.90
2019-06-15T16:19:27.798Z,2.27
2019-06-15T16:21:57.404Z,2.20
2019-06-15T16:24:27.460Z,2.57
2019-06-15T16:26:57.067Z,2.93
2019-06-15T16:29:26.720Z,4.13
2019-06-15T16:31:56.536Z,2.90
2019-06-15T16:34:26.991Z,3.70
2019-06-15T16:36:57.116Z,5.30
2019-06-15T16:39:26.975Z,4.00
2019-06-15T16:41:57.683Z,3.33
2019-06-15T16:44:27.182Z,5.83
2019-06-15T16:46:59.191Z,2.47
2019-06-15T16:49:36.281Z,3.43
2019-06-15T16:52:06.269Z,6.13
2019-06-15T16:54:36.188Z,2.80
2019-06-15T16:57:05.944Z,2.67
2019-06-15T16:59:36.405Z,3.40
2019-06-15T17:02:06.573Z,3.60
2019-06-15T17:04:36.483Z,5.37
2019-06-15T17:07:07.054Z,7.43
2019-06-15T17:09:36.904Z,4.33
2019-06-15T17:12:06.639Z,2.87
2019-06-15T17:14:36.546Z,11.93
2019-06-15T17:17:06.012Z,2.77
2019-06-15T17:19:36.274Z,3.60
2019-06-15T17:22:14.718Z,3.10
2019-06-15T17:24:37.154Z,4.07
2019-06-15T17:27:06.824Z,3.97
2019-06-15T17:29:36.360Z,2.83
2019-06-15T17:32:06.325Z,4.30
2019-06-15T17:34:36.521Z,3.70
2019-06-15T17:37:06.787Z,3.13
2019-06-15T17:39:37.533Z,3.43
2019-06-15T17:42:22.144Z,3.77
2019-06-15T17:44:46.017Z,4.40
2019-06-15T17:47:11.900Z,8.40
2019-06-15T17:49:41.647Z,5.90
2019-06-15T17:52:11.210Z,4.87
2019-06-15T17:54:40.785Z,3.80
2019-06-15T17:57:10.281Z,3.53
2019-06-15T17:59:39.588Z,4.73
2019-06-15T18:02:09.097Z,3.73
2019-06-15T18:04:38.562Z,3.63
2019-06-15T18:07:08.077Z,2.53
2019-06-15T18:09:37.055Z,3.42
2019-06-15T18:12:06.586Z,2.50
2019-06-15T18:14:36.750Z,4.97
2019-06-15T18:17:07.252Z,6.03
2019-06-15T18:19:36.935Z,8.00
2019-06-15T18:22:07.185Z,2.47
2019-06-15T18:24:37.211Z,3.50
2019-06-15T18:27:08.948Z,4.50
2019-06-15T18:29:36.997Z,7.10
2019-06-15T18:32:06.458Z,2.47
2019-06-15T18:34:36.825Z,4.43
2019-06-15T18:37:07.696Z,3.27
2019-06-15T18:39:36.932Z,3.43
2019-06-15T18:42:07.713Z,6.60
2019-06-15T18:44:36.751Z,2.57
2019-06-15T18:47:07.113Z,3.77
2019-06-15T18:49:36.331Z,2.87
2019-06-15T18:52:06.206Z,4.23
2019-06-15T18:54:36.399Z,6.07
2019-06-15T18:57:07.381Z,4.83
2019-06-15T18:59:36.515Z,2.70
2019-06-15T19:02:06.724Z,3.37
2019-06-15T19:04:35.675Z,4.87
2019-06-15T19:07:06.509Z,6.47
2019-06-15T19:09:35.549Z,4.80
2019-06-15T19:12:07.068Z,4.70
2019-06-15T19:14:36.503Z,3.97
2019-06-15T19:17:06.153Z,7.00
2019-06-15T19:19:37.741Z,3.93
2019-06-15T19:22:06.795Z,2.63
2019-06-15T19:24:36.793Z,3.13
2019-06-15T19:27:08.230Z,3.37
2019-06-15T19:29:37.493Z,2.70
2019-06-15T19:32:08.176Z,3.77
2019-06-15T19:34:47.193Z,2.13
2019-06-15T19:37:09.090Z,2.70
2019-06-15T19:39:38.571Z,4.47
2019-06-15T19:42:08.319Z,2.47
2019-06-15T19:44:37.197Z,3.70
2019-06-15T19:47:07.177Z,2.70
2019-06-15T19:49:36.351Z,5.57
2019-06-15T19:52:06.645Z,4.13
2019-06-15T19:54:36.540Z,2.60
2019-06-15T19:57:06.865Z,2.60
2019-06-15T19:59:36.636Z,8.53
2019-06-15T20:02:06.831Z,4.50
2019-06-15T20:04:37.497Z,4.23
2019-06-15T20:07:07.547Z,3.80
2019-06-15T20:09:39.160Z,5.00
2019-06-15T20:12:18.263Z,3.58
2019-06-15T20:14:39.711Z,2.60
2019-06-15T20:17:09.012Z,3.60
2019-06-15T20:19:38.355Z,13.50
2019-06-15T20:22:07.771Z,6.67
2019-06-15T20:24:36.589Z,5.87
2019-06-15T20:27:10.073Z,4.30
2019-06-15T20:29:36.184Z,4.97
2019-06-15T20:32:06.833Z,4.17
2019-06-15T20:34:37.141Z,3.43
2019-06-15T20:37:06.087Z,3.63
2019-06-15T20:39:36.297Z,3.00
2019-06-15T20:42:07.832Z,4.83
2019-06-15T20:44:36.754Z,3.53
2019-06-15T20:47:06.680Z,3.27
2019-06-15T20:49:36.984Z,5.27
2019-06-15T20:52:07.128Z,3.50
2019-06-15T20:54:36.110Z,5.07
2019-06-15T20:57:06.432Z,4.83
2019-06-15T20:59:36.957Z,8.60
2019-06-15T21:02:06.761Z,5.13
2019-06-15T21:04:36.400Z,4.23
2019-06-15T21:07:06.619Z,4.13
2019-06-15T21:09:36.327Z,5.10
2019-06-15T21:12:06.685Z,5.20
2019-06-15T21:14:36.611Z,4.17
2019-06-15T21:17:06.735Z,4.23
2019-06-15T21:19:36.126Z,5.67
2019-06-15T21:22:06.325Z,4.60
2019-06-15T21:24:37.356Z,3.00
2019-06-15T21:27:06.226Z,6.90
2019-06-15T21:29:37.031Z,3.80
2019-06-15T21:32:05.615Z,3.80
2019-06-15T21:34:36.245Z,5.47
2019-06-15T21:37:06.517Z,4.37
2019-06-15T21:39:36.520Z,3.60
2019-06-15T21:42:05.533Z,4.63
2019-06-15T21:44:36.142Z,3.87
2019-06-15T21:47:06.884Z,3.63
2019-06-15T21:49:35.884Z,4.77
2019-06-15T21:54:50.636Z,4.47
2019-06-15T21:57:20.046Z,2.80
2019-06-15T21:59:48.914Z,5.90
2019-06-15T22:02:17.821Z,3.17
2019-06-15T22:04:46.527Z,2.67
2019-06-15T22:07:16.905Z,4.47
2019-06-15T22:09:46.920Z,3.83
2019-06-15T22:12:16.303Z,4.33
2019-06-15T22:14:46.668Z,3.40
2019-06-15T22:17:16.887Z,3.50
2019-06-15T22:19:46.668Z,3.60
2019-06-15T22:22:16.448Z,5.20
2019-06-15T22:24:46.915Z,5.37
2019-06-15T22:27:17.056Z,3.87
2019-06-15T22:29:47.227Z,4.83
2019-06-15T22:32:16.621Z,4.27
2019-06-15T22:34:47.062Z,5.30
2019-06-15T22:37:17.376Z,3.77
2019-06-15T22:39:46.730Z,5.03
2019-06-15T22:42:16.799Z,4.80
2019-06-15T22:44:46.439Z,3.57
2019-06-15T22:47:16.824Z,3.93
2019-06-15T22:49:46.838Z,3.93
2019-06-15T22:52:17.092Z,4.20
2019-06-15T22:54:46.507Z,8.83
2019-06-15T22:57:16.742Z,4.90
2019-06-15T22:59:46.157Z,4.17
2019-06-15T23:02:16.763Z,4.73
2019-06-15T23:04:47.127Z,5.57
2019-06-15T23:07:16.176Z,3.72
2019-06-15T23:09:46.763Z,4.40
2019-06-15T23:12:15.478Z,5.20
2019-06-15T23:14:46.443Z,4.47
2019-06-15T23:17:14.803Z,4.83
2019-06-15T23:24:12.050Z,5.87
2019-06-15T23:26:50.445Z,5.43
2019-06-15T23:29:19.249Z,6.67
2019-06-15T23:31:48.106Z,3.97
2019-06-15T23:34:16.852Z,5.87
2019-06-15T23:36:56.836Z,5.30
2019-06-15T23:39:18.946Z,6.20
2019-06-15T23:41:47.708Z,7.70
2019-06-15T23:44:16.576Z,3.80
2019-06-15T23:46:46.960Z,7.87
2019-06-15T23:49:16.408Z,6.70
2019-06-15T23:51:46.669Z,10.30
2019-06-15T23:54:16.900Z,5.70
2019-06-15T23:56:46.263Z,6.80
2019-06-15T23:59:18.009Z,5.47
